Latest Weather Observations for Longerenong

IDV60801

Issued at 7:02 am EDT Friday 30 January 2015 (issued every 30 minutes, with the page automatically refreshed every 10 minutes)

About weather observations | Map of weather stations | Latest weather observations for VIC | Other Formats
Station Details ID: 079028 Name: LONGERENONG Lat: -36.67 Lon: 142.30 Height: 133.0 m
Data from the previous 72 hours. | See also: Recent months at Longerenong
Date/Time
EDT
Temp
°C
App
Temp
°C
Dew
Point
Rel
Hum
%
Delta-T
°C
Wind Press
QNH
hPa
Press
MSL
hPa
Rain
since 9 am
mm
Dir
 
Spd
km/h
Gust
km/h
Spd
kts
Gust
kts
30/07:00am 12.2 - - - - SE 13 19 7 10 - - 0.0
30/06:30am 11.9 - - - - SE 15 19 8 10 - - 0.0
30/06:00am 12.1 - - - - SE 15 20 8 11 - - 0.0
30/05:30am 12.1 - - - - SE 17 22 9 12 - - 0.0
30/05:00am 12.2 - - - - SE 17 24 9 13 - - 0.0
30/04:30am 12.2 - - - - SE 17 22 9 12 - - 0.0
30/04:00am 12.5 - - - - SSE 19 26 10 14 - - 0.0
30/03:30am 12.9 - - - - SSE 20 30 11 16 - - 0.0
30/03:00am 13.1 - - - - SE 19 26 10 14 - - 0.0
30/02:30am 13.2 - - - - SE 20 28 11 15 - - 0.0
30/02:00am 13.3 - - - - SE 19 24 10 13 - - 0.0
30/01:30am 13.6 - - - - SSE 20 32 11 17 - - 0.0
30/01:00am 14.1 - - - - SE 22 32 12 17 - - 0.0
30/12:30am 14.4 - - - - SE 22 28 12 15 - - 0.0
30/12:00am 15.1 - - - - SE 20 28 11 15 - - 0.0
 
Date/Time
EDT
Temp
°C
App
Temp
°C
Dew
Point
Rel
Hum
%
Delta-T
°C
Wind Press
QNH
hPa
Press
MSL
hPa
Rain
since 9 am
mm
Dir
 
Spd
km/h
Gust
km/h
Spd
kts
Gust
kts
29/11:30pm 15.8 - - - - SE 22 30 12 16 - - 0.0
29/11:00pm 16.3 - - - - SE 19 30 10 16 - - 0.0
29/10:30pm 17.1 - - - - SE 26 33 14 18 - - 0.0
29/10:00pm 17.9 - - - - SE 24 32 13 17 - - 0.0
29/09:30pm 18.9 - - - - SE 28 39 15 21 - - 0.0
29/09:00pm 19.6 - - - - SE 30 43 16 23 - - 0.0
29/08:30pm 20.7 - - - - SE 30 39 16 21 - - 0.0
29/08:00pm 21.8 - - - - SE 30 44 16 24 - - 0.0
29/07:30pm 22.7 - - - - SE 33 43 18 23 - - 0.0
29/07:16pm 23.1 - - - - SE 33 52 18 28 - - 0.0
29/07:00pm 23.5 - - - - SE 35 46 19 25 - - 0.0
29/06:30pm 24.0 - - - - SE 32 44 17 24 - - 0.0
29/06:00pm 24.6 - - - - SE 33 44 18 24 - - 0.0
29/05:30pm 24.5 - - - - SE 30 43 16 23 - - 0.0
29/05:00pm 25.9 - - - - SE 28 37 15 20 - - 0.0
29/04:30pm 24.8 - - - - SSE 30 43 16 23 - - 0.0
29/04:00pm 24.9 - - - - SSE 30 46 16 25 - - 0.0
29/03:30pm 24.8 - - - - SSE 28 41 15 22 - - 0.0
29/03:00pm 25.3 - - - - SE 30 43 16 23 - - 0.0
29/02:39pm 24.9 - - - - SSE 28 50 15 27 - - 0.0
29/02:30pm 24.2 - - - - SSE 24 39 13 21 - - 0.0
29/02:00pm 24.1 - - - - SE 28 39 15 21 - - 0.0
29/01:49pm 23.7 - - - - SE 28 46 15 25 - - 0.0
29/01:30pm 24.3 - - - - SE 24 39 13 21 - - 0.0
29/01:00pm 24.1 - - - - SSE 28 41 15 22 - - 0.0
29/12:30pm 22.5 - - - - SE 24 43 13 23 - - 0.0
29/12:18pm 22.8 - - - - SE 28 61 15 33 - - 0.0
29/12:00pm 21.9 - - - - SE 30 44 16 24 - - 0.0
29/11:30am 21.2 - - - - SE 30 43 16 23 - - 0.0
29/11:00am 20.2 - - - - SE 30 43 16 23 - - 0.0
29/10:30am 19.4 - - - - SE 32 43 17 23 - - 0.0
29/10:00am 18.2 - - - - SE 33 44 18 24 - - 0.0
29/09:30am 17.5 - - - - SE 33 46 18 25 - - 0.0
29/09:00am 16.5 - - - - SE 26 41 14 22 - - 0.0
29/08:30am 15.4 - - - - SE 22 33 12 18 - - 0.0
29/08:00am 14.3 - - - - SE 22 32 12 17 - - 0.0
29/07:30am 13.3 - - - - ESE 19 24 10 13 - - 0.0
29/07:00am 12.5 - - - - SE 20 26 11 14 - - 0.0
29/06:30am 12.5 - - - - SE 20 28 11 15 - - 0.0
29/06:00am 12.8 - - - - SE 22 32 12 17 - - 0.0
29/05:30am 12.7 - - - - SE 22 30 12 16 - - 0.0
29/05:00am 12.6 - - - - SE 26 33 14 18 - - 0.0
29/04:30am 12.6 - - - - SE 26 37 14 20 - - 0.0
29/04:00am 12.6 - - - - SE 24 30 13 16 - - 0.0
29/03:30am 13.0 - - - - SE 22 30 12 16 - - 0.0
29/03:00am 13.2 - - - - SE 22 30 12 16 - - 0.0
29/02:30am 13.5 - - - - SE 28 39 15 21 - - 0.0
29/02:00am 13.8 - - - - SE 28 37 15 20 - - 0.0
29/01:30am 14.2 - - - - SE 28 39 15 21 - - 0.0
29/01:00am 14.6 - - - - SE 20 28 11 15 - - 0.0
29/12:30am 15.1 - - - - SE 20 30 11 16 - - 0.0
29/12:00am 15.6 - - - - SE 22 32 12 17 - - 0.0
 
Date/Time
EDT
Temp
°C
App
Temp
°C
Dew
Point
Rel
Hum
%
Delta-T
°C
Wind Press
QNH
hPa
Press
MSL
hPa
Rain
since 9 am
mm
Dir
 
Spd
km/h
Gust
km/h
Spd
kts
Gust
kts
28/11:30pm 16.2 - - - - SE 26 33 14 18 - - 0.0
28/11:00pm 16.9 - - - - SE 30 43 16 23 - - 0.0
28/10:30pm 17.8 - - - - SE 35 46 19 25 - - 0.0
28/10:00pm 18.6 - - - - SE 35 48 19 26 - - 0.0
28/09:30pm 19.7 - - - - SE 37 48 20 26 - - 0.0
28/09:00pm 20.7 - - - - SE 35 48 19 26 - - 0.0
28/08:30pm 21.8 - - - - SE 32 41 17 22 - - 0.0
28/08:00pm 23.0 - - - - SSE 37 48 20 26 - - 0.0
28/07:30pm 24.1 - - - - SSE 33 48 18 26 - - 0.0
28/07:00pm 25.1 - - - - SSE 33 48 18 26 - - 0.0
28/06:30pm 25.6 - - - - SSE 35 50 19 27 - - 0.0
28/06:04pm 26.6 - - - - SSE 33 52 18 28 - - 0.0
28/06:00pm 26.4 - - - - SE 37 52 20 28 - - 0.0
28/05:30pm 26.3 - - - - SE 32 46 17 25 - - 0.0
28/05:00pm 27.3 - - - - SE 32 43 17 23 - - 0.0
28/04:30pm 27.3 - - - - SE 32 50 17 27 - - 0.0
28/04:27pm 27.4 - - - - SE 32 50 17 27 - - 0.0
28/04:00pm 26.7 - - - - SSE 30 43 16 23 - - 0.0
28/03:30pm 26.5 - - - - SSE 30 44 16 24 - - 0.0
28/03:00pm 26.1 - - - - SE 32 44 17 24 - - 0.0
28/02:30pm 26.1 - - - - SE 32 43 17 23 - - 0.0
28/02:00pm 25.0 - - - - SE 28 39 15 21 - - 0.0
28/01:52pm 24.8 - - - - SSE 28 46 15 25 - - 0.0
28/01:30pm 24.3 - - - - SE 26 43 14 23 - - 0.0
28/01:00pm 23.9 - - - - SE 22 41 12 22 - - 0.0
28/12:30pm 23.2 - - - - SE 26 35 14 19 - - 0.0
28/12:00pm 22.0 - - - - SSE 28 39 15 21 - - 0.0
28/11:30am 21.1 - - - - SE 30 39 16 21 - - 0.0
28/11:00am 20.7 - - - - SE 32 44 17 24 - - 0.0
28/10:30am 19.3 - - - - SSE 33 44 18 24 - - 0.0
28/10:00am 17.9 - - - - SE 33 52 18 28 - - 0.0
28/09:30am 17.3 - - - - SE 35 46 19 25 - - 0.0
28/09:00am 16.6 - - - - SE 35 46 19 25 - - 0.0
28/08:43am 16.1 - - - - SE 35 54 19 29 - - 0.0
28/08:30am 15.5 - - - - SE 32 48 17 26 - - 0.0
28/08:00am 14.6 - - - - SSE 26 39 14 21 - - 0.0
28/07:30am 13.6 - - - - SSE 26 39 14 21 - - 0.0
28/07:00am 12.8 - - - - SSE 26 39 14 21 - - 0.0
28/06:30am 12.6 - - - - SSE 24 35 13 19 - - 0.0
28/06:00am 12.6 - - - - SSE 20 33 11 18 - - 0.0
28/05:30am 12.4 - - - - SE 24 35 13 19 - - 0.0
28/05:00am 12.7 - - - - SE 26 39 14 21 - - 0.0
28/04:30am 12.9 - - - - SSE 26 39 14 21 - - 0.0
28/04:00am 13.0 - - - - SE 28 41 15 22 - - 0.0
28/03:30am 13.2 - - - - SE 24 32 13 17 - - 0.0
28/03:00am 13.2 - - - - SSE 24 35 13 19 - - 0.0
28/02:30am 12.9 - - - - SSE 19 28 10 15 - - 0.0
28/02:00am 13.4 - - - - SSE 28 43 15 23 - - 0.0
28/01:30am 13.4 - - - - SSE 24 35 13 19 - - 0.0
28/01:00am 13.4 - - - - SSE 20 32 11 17 - - 0.0
28/12:30am 13.9 - - - - SSE 33 46 18 25 - - 0.0
28/12:00am 14.5 - - - - SSE 26 43 14 23 - - 0.0
 
Date/Time
EDT
Temp
°C
App
Temp
°C
Dew
Point
Rel
Hum
%
Delta-T
°C
Wind Press
QNH
hPa
Press
MSL
hPa
Rain
since 9 am
mm
Dir
 
Spd
km/h
Gust
km/h
Spd
kts
Gust
kts
27/11:30pm 14.8 - - - - SSE 33 52 18 28 - - 0.0
27/11:20pm 14.8 - - - - SE 32 52 17 28 - - 0.0
27/11:00pm 15.0 - - - - SE 35 46 19 25 - - 0.0
27/10:30pm 15.4 - - - - SE 35 46 19 25 - - 0.0
27/10:03pm 15.9 - - - - SE 28 48 15 26 - - 0.0
27/10:00pm 15.9 - - - - SE 30 43 16 23 - - 0.0
27/09:30pm 16.4 - - - - SSE 32 41 17 22 - - 0.0
27/09:00pm 16.7 - - - - SE 32 41 17 22 - - 0.0
27/08:30pm 17.6 - - - - SE 33 48 18 26 - - 0.0
27/08:00pm 19.0 - - - - SE 35 50 19 27 - - 0.0
27/07:30pm 20.1 - - - - SE 35 44 19 24 - - 0.0
27/07:00pm 21.1 - - - - SE 35 48 19 26 - - 0.0
27/06:30pm 22.5 - - - - SE 33 50 18 27 - - 0.0
27/06:00pm 23.0 - - - - SE 30 46 16 25 - - 0.0
27/05:30pm 22.3 - - - - S 26 41 14 22 - - 0.0
27/05:00pm 23.8 - - - - SSE 28 37 15 20 - - 0.0
27/04:30pm 23.3 - - - - S 26 35 14 19 - - 0.0
27/04:00pm 25.1 - - - - SSE 19 41 10 22 - - 0.0
27/03:30pm 23.9 - - - - S 19 28 10 15 - - 0.0
27/03:00pm 23.5 - - - - S 19 35 10 19 - - 0.0
27/02:30pm 22.8 - - - - S 24 37 13 20 - - 0.0
27/02:00pm 21.6 - - - - SSE 19 30 10 16 - - 0.0
27/01:30pm 21.6 - - - - SSE 20 37 11 20 - - 0.0
27/01:00pm 20.4 - - - - SE 15 32 8 17 - - 0.0
27/12:30pm 20.3 - - - - S 15 24 8 13 - - 0.0
27/12:00pm 19.3 - - - - S 20 32 11 17 - - 0.0
27/11:30am 19.4 - - - - SE 24 33 13 18 - - 0.0
27/11:00am 18.4 - - - - SE 20 32 11 17 - - 0.0
27/10:30am 18.2 - - - - SSE 24 39 13 21 - - 0.0
27/10:00am 16.5 - - - - SSE 26 35 14 19 - - 0.0
27/09:30am 16.0 - - - - SSE 28 39 15 21 - - 0.0
27/09:00am 14.9 - - - - SSE 24 35 13 19 - - 0.0
27/08:30am 13.2 - - - - S 15 20 8 11 - - 0.0
27/08:00am 11.6 - - - - SSW 11 17 6 9 - - 0.0
27/07:30am 9.2 - - - - SSW 9 13 5 7 - - 0.0

Other Formats:

Comma delimited format used in spreadsheet applications
http://www.bom.gov.au/fwo/IDV60801/IDV60801.95835.axf

JavaScript Object Notation format (JSON) in row-major order
http://www.bom.gov.au/fwo/IDV60801/IDV60801.95835.json